createdAt,value
2024-02-08T00:00:51.195Z,98736.78
2024-02-08T00:02:54.549Z,98739.75
2024-02-08T00:04:56.800Z,98734.97
2024-02-08T00:07:02.263Z,98731.81
2024-02-08T00:09:07.476Z,98731.72
2024-02-08T00:11:09.830Z,98726.16
2024-02-08T00:13:14.478Z,98726.59
2024-02-08T00:15:19.330Z,98727.63
2024-02-08T00:17:24.678Z,98720.25
2024-02-08T00:19:26.966Z,98720.16
2024-02-08T00:21:33.044Z,98720.97
2024-02-08T00:23:38.278Z,98715.91
2024-02-08T00:25:41.478Z,98711.59
2024-02-08T00:27:44.802Z,98716.63
2024-02-08T00:29:48.082Z,98715.69
2024-02-08T00:31:53.635Z,98716.16
2024-02-08T00:33:56.901Z,98717.00
2024-02-08T00:36:00.049Z,98711.47
2024-02-08T00:38:05.357Z,98711.13
2024-02-08T00:40:11.366Z,98712.84
2024-02-08T00:42:15.128Z,98719.94
2024-02-08T00:44:17.822Z,98720.84
2024-02-08T00:46:22.103Z,98725.91
2024-02-08T00:48:26.853Z,98730.75
2024-02-08T00:50:29.995Z,98735.00
2024-02-08T00:52:34.591Z,98730.09
2024-02-08T00:54:38.441Z,98726.34
2024-02-08T00:56:43.136Z,98732.00
2024-02-08T00:58:48.463Z,98729.59
2024-02-08T01:02:59.353Z,98723.91
2024-02-08T01:05:08.918Z,98722.47
2024-02-08T01:07:12.326Z,98721.66
2024-02-08T01:09:21.644Z,98725.25
2024-02-08T01:11:25.829Z,98726.06
2024-02-08T01:13:30.657Z,98726.88
2024-02-08T01:15:33.853Z,98716.72
2024-02-08T01:17:37.071Z,98720.34
2024-02-08T01:19:40.370Z,98711.72
2024-02-08T01:21:45.961Z,98711.72
2024-02-08T01:23:49.242Z,98710.03
2024-02-08T01:25:51.520Z,98708.97
2024-02-08T01:27:56.615Z,98695.44
2024-02-08T01:30:01.435Z,98704.47
2024-02-08T01:32:05.124Z,98698.66
2024-02-08T01:34:10.860Z,98697.25
2024-02-08T01:36:14.780Z,98690.53
2024-02-08T01:38:19.894Z,98691.16
2024-02-08T01:40:23.192Z,98684.91
2024-02-08T01:42:26.436Z,98682.72
2024-02-08T01:44:33.658Z,98680.97
2024-02-08T01:46:39.734Z,98676.47
2024-02-08T01:48:46.607Z,98681.59
2024-02-08T01:50:53.625Z,98665.31
2024-02-08T01:53:00.553Z,98670.16
2024-02-08T01:55:07.120Z,98678.44
2024-02-08T01:57:10.730Z,98673.75
2024-02-08T01:59:15.104Z,98678.59
2024-02-08T02:01:18.910Z,98674.97
2024-02-08T02:03:24.728Z,98676.59
2024-02-08T02:05:27.179Z,98668.69
2024-02-08T02:07:31.322Z,98669.63
2024-02-08T02:09:36.430Z,98670.53
2024-02-08T02:11:45.431Z,98667.88
2024-02-08T02:13:50.299Z,98660.84
2024-02-08T02:15:54.095Z,98663.38
2024-02-08T02:17:56.474Z,98664.84
2024-02-08T02:20:07.787Z,98660.28
2024-02-08T02:22:15.035Z,98664.50
2024-02-08T02:24:26.042Z,98667.09
2024-02-08T02:26:31.152Z,98662.44
2024-02-08T02:28:34.676Z,98660.22
2024-02-08T02:30:38.110Z,98665.34
2024-02-08T02:32:42.621Z,98669.09
2024-02-08T02:34:48.043Z,98670.91
2024-02-08T02:36:54.767Z,98678.25
2024-02-08T02:39:00.058Z,98675.19
2024-02-08T02:41:08.219Z,98680.72
2024-02-08T02:43:15.016Z,98672.81
2024-02-08T02:45:27.195Z,98672.63
2024-02-08T02:47:30.525Z,98670.19
2024-02-08T02:49:38.799Z,98669.63
2024-02-08T02:51:43.086Z,98671.00
2024-02-08T02:53:46.571Z,98687.00
2024-02-08T02:55:57.217Z,98680.97
2024-02-08T02:58:00.531Z,98683.41
2024-02-08T03:00:04.329Z,98683.78
2024-02-08T03:02:09.992Z,98676.97
2024-02-08T03:04:13.374Z,98673.16
2024-02-08T03:06:17.489Z,98680.22
2024-02-08T03:08:22.022Z,98680.56
2024-02-08T03:10:25.332Z,98676.63
2024-02-08T03:12:31.550Z,98685.44
2024-02-08T03:14:35.302Z,98686.56
2024-02-08T03:16:38.809Z,98690.28
2024-02-08T03:18:44.927Z,98699.47
2024-02-08T03:20:48.447Z,98694.66
2024-02-08T03:22:50.903Z,98704.72
2024-02-08T03:24:54.840Z,98703.66
2024-02-08T03:26:58.142Z,98682.56
2024-02-08T03:29:02.793Z,98690.22
2024-02-08T03:31:10.405Z,98702.59
2024-02-08T03:33:17.692Z,98698.38
2024-02-08T03:35:26.972Z,98684.22
2024-02-08T03:37:30.405Z,98686.72
2024-02-08T03:39:33.640Z,98677.41
2024-02-08T03:41:38.251Z,98676.28
2024-02-08T03:43:41.632Z,98696.19
2024-02-08T03:45:48.588Z,98689.84
2024-02-08T03:47:52.650Z,98678.97
2024-02-08T03:49:55.032Z,98684.50
2024-02-08T03:51:58.287Z,98673.41
2024-02-08T03:54:05.070Z,98689.16
2024-02-08T03:56:08.983Z,98695.78
2024-02-08T03:58:15.907Z,98688.94
2024-02-08T04:00:29.731Z,98701.63
2024-02-08T04:02:36.355Z,98709.69
2024-02-08T04:04:54.863Z,98711.84
2024-02-08T04:07:16.163Z,98698.19
2024-02-08T04:09:35.235Z,98695.69
2024-02-08T04:11:56.274Z,98694.94
2024-02-08T04:14:17.003Z,98683.44
2024-02-08T04:16:37.402Z,98681.97
2024-02-08T04:19:00.742Z,98675.34
2024-02-08T04:21:21.488Z,98679.56
2024-02-08T04:23:41.797Z,98676.94
2024-02-08T04:26:02.759Z,98685.75
2024-02-08T04:28:23.634Z,98684.28
2024-02-08T04:30:43.767Z,98687.19
2024-02-08T04:33:06.702Z,98683.53
2024-02-08T04:35:30.680Z,98680.03
2024-02-08T04:37:51.215Z,98670.06
2024-02-08T04:40:13.512Z,98673.53
2024-02-08T04:42:35.073Z,98686.06
2024-02-08T04:44:56.038Z,98701.59
2024-02-08T04:47:16.641Z,98697.03
2024-02-08T04:49:39.635Z,98685.78
2024-02-08T04:52:05.112Z,98688.25
2024-02-08T04:54:11.231Z,98693.00
2024-02-08T04:56:13.849Z,98693.63
2024-02-08T04:58:37.086Z,98707.50
2024-02-08T05:00:46.848Z,98711.63
2024-02-08T05:02:50.845Z,98712.44
2024-02-08T05:04:57.213Z,98709.63
2024-02-08T05:07:08.701Z,98708.81
2024-02-08T05:09:17.384Z,98712.50
2024-02-08T05:11:21.729Z,98715.72
2024-02-08T05:13:25.914Z,98728.00
2024-02-08T05:15:29.279Z,98732.28
2024-02-08T05:17:32.536Z,98725.19
2024-02-08T05:19:37.183Z,98718.13
2024-02-08T05:21:43.161Z,98716.00
2024-02-08T05:23:52.662Z,98706.38
2024-02-08T05:25:56.011Z,98710.84
2024-02-08T05:27:59.250Z,98716.16
2024-02-08T05:30:03.464Z,98702.72
2024-02-08T05:32:05.899Z,98706.72
2024-02-08T05:34:16.550Z,98712.91
2024-02-08T05:36:21.245Z,98706.19
2024-02-08T05:38:26.286Z,98707.69
2024-02-08T05:40:32.739Z,98704.91
2024-02-08T05:42:37.813Z,98700.53
2024-02-08T05:44:43.428Z,98702.38
2024-02-08T05:46:47.343Z,98713.91
2024-02-08T05:48:53.340Z,98716.81
2024-02-08T05:50:58.435Z,98712.53
2024-02-08T05:53:08.279Z,98716.66
2024-02-08T05:55:14.428Z,98716.75
2024-02-08T05:57:23.080Z,98720.03
2024-02-08T05:59:30.632Z,98723.34
2024-02-08T06:01:45.691Z,98715.53
2024-02-08T06:03:49.682Z,98716.00
2024-02-08T06:06:08.001Z,98709.25
2024-02-08T06:08:26.803Z,98713.19
2024-02-08T06:10:46.862Z,98714.63
2024-02-08T06:13:00.976Z,98718.53
2024-02-08T06:15:16.247Z,98716.84
2024-02-08T06:17:25.622Z,98725.66
2024-02-08T06:19:35.660Z,98718.25
2024-02-08T06:21:41.849Z,98716.09
2024-02-08T06:23:46.670Z,98707.41
2024-02-08T06:26:22.769Z,98719.78
2024-02-08T06:28:30.576Z,98724.16
2024-02-08T06:30:33.829Z,98721.34
2024-02-08T06:32:45.165Z,98730.88
2024-02-08T06:34:57.223Z,98728.09
2024-02-08T06:37:00.594Z,98732.31
2024-02-08T06:41:52.708Z,98731.13
2024-02-08T06:44:21.243Z,98733.81
2024-02-08T06:46:40.761Z,98748.31
2024-02-08T06:49:00.790Z,98742.28
2024-02-08T06:51:23.226Z,98751.56
2024-02-08T06:53:44.027Z,98754.91
2024-02-08T06:56:04.202Z,98753.34
2024-02-08T06:58:41.178Z,98755.22
2024-02-08T07:01:02.036Z,98758.03
2024-02-08T07:03:23.459Z,98766.00
2024-02-08T07:05:44.292Z,98768.06
2024-02-08T07:08:05.243Z,98771.22
2024-02-08T07:10:26.285Z,98776.66
2024-02-08T07:12:47.089Z,98770.97
2024-02-08T07:15:08.904Z,98775.66
2024-02-08T07:17:29.669Z,98782.91
2024-02-08T07:19:50.196Z,98782.13
2024-02-08T07:22:10.933Z,98779.22
2024-02-08T07:24:31.915Z,98783.38
2024-02-08T07:26:54.914Z,98786.63
2024-02-08T07:29:15.677Z,98776.88
2024-02-08T07:31:43.327Z,98770.34
2024-02-08T07:34:04.132Z,98777.00
2024-02-08T07:36:25.910Z,98784.84
2024-02-08T07:38:43.181Z,98775.88
2024-02-08T07:40:46.438Z,98776.16
2024-02-08T07:42:53.483Z,98777.56
2024-02-08T07:44:59.179Z,98777.97
2024-02-08T07:47:05.266Z,98778.81
2024-02-08T07:49:07.990Z,98784.03
2024-02-08T07:51:17.310Z,98780.69
2024-02-08T07:53:35.796Z,98783.84
2024-02-08T07:55:59.293Z,98777.00
2024-02-08T07:58:09.835Z,98782.06
2024-02-08T08:00:28.162Z,98778.75
2024-02-08T08:02:33.475Z,98777.84
2024-02-08T08:04:54.001Z,98772.09
2024-02-08T08:07:02.358Z,98774.28
2024-02-08T08:09:20.376Z,98770.38
2024-02-08T08:11:27.188Z,98770.81
2024-02-08T08:13:48.629Z,98774.75
2024-02-08T08:16:12.061Z,98766.72
2024-02-08T08:18:25.369Z,98770.66
2024-02-08T08:20:46.677Z,98773.06
2024-02-08T08:23:00.683Z,98777.31
2024-02-08T08:25:15.008Z,98778.88
2024-02-08T08:27:28.678Z,98782.50
2024-02-08T08:29:43.856Z,98789.78
2024-02-08T08:31:53.318Z,98779.16
2024-02-08T08:34:01.067Z,98782.59
2024-02-08T08:36:21.662Z,98788.28
2024-02-08T08:38:38.619Z,98792.41
2024-02-08T08:40:41.837Z,98787.09
2024-02-08T08:42:51.498Z,98787.59
2024-02-08T08:44:58.692Z,98786.16
2024-02-08T08:47:02.659Z,98772.75
2024-02-08T08:49:07.653Z,98783.06
2024-02-08T08:51:14.607Z,98775.53
2024-02-08T08:53:21.118Z,98776.53
2024-02-08T08:55:24.406Z,98774.69
2024-02-08T08:57:26.817Z,98770.44
2024-02-08T08:59:30.608Z,98767.91
2024-02-08T09:01:37.866Z,98767.56
2024-02-08T09:03:42.252Z,98769.28
2024-02-08T09:05:48.178Z,98762.22
2024-02-08T09:07:55.039Z,98757.34
2024-02-08T09:10:03.040Z,98756.31
2024-02-08T09:12:09.249Z,98756.97
2024-02-08T09:14:17.359Z,98755.97
2024-02-08T09:16:38.560Z,98758.09
2024-02-08T09:18:56.536Z,98752.59
2024-02-08T09:21:01.183Z,98746.22
2024-02-08T09:23:14.591Z,98756.84
2024-02-08T09:25:27.742Z,98757.38
2024-02-08T09:27:39.886Z,98753.34
2024-02-08T09:29:44.086Z,98756.16
2024-02-08T09:31:47.930Z,98757.47
2024-02-08T09:34:02.989Z,98747.81
2024-02-08T09:36:08.719Z,98750.22
2024-02-08T09:38:20.248Z,98754.16
2024-02-08T09:40:43.974Z,98754.91
2024-02-08T09:42:56.309Z,98759.44
2024-02-08T09:45:15.855Z,98758.03
2024-02-08T09:47:27.240Z,98752.81
2024-02-08T09:49:36.660Z,98759.28
2024-02-08T09:51:42.260Z,98757.16
2024-02-08T09:53:53.346Z,98763.69
2024-02-08T09:55:59.060Z,98773.78
2024-02-08T09:58:06.151Z,98759.22
2024-02-08T10:00:31.342Z,98761.97
2024-02-08T10:02:38.574Z,98765.03
2024-02-08T10:04:44.296Z,98775.78
2024-02-08T10:06:59.092Z,98761.50
2024-02-08T10:09:24.261Z,98759.22
2024-02-08T10:11:37.506Z,98759.69
2024-02-08T10:13:55.144Z,98769.03
2024-02-08T10:15:59.764Z,98767.53
2024-02-08T10:18:12.156Z,98758.47
2024-02-08T10:20:29.698Z,98752.03
2024-02-08T10:22:35.188Z,98754.06
2024-02-08T10:25:05.827Z,98743.38
2024-02-08T10:27:20.677Z,98738.84
2024-02-08T10:29:26.513Z,98744.31
2024-02-08T10:31:30.448Z,98732.28
2024-02-08T10:33:39.452Z,98725.09
2024-02-08T10:35:43.415Z,98728.63
2024-02-08T10:37:55.493Z,98718.94
2024-02-08T10:40:01.761Z,98718.00
2024-02-08T10:42:15.289Z,98717.47
2024-02-08T10:44:24.227Z,98710.53
2024-02-08T10:46:33.457Z,98712.63
2024-02-08T10:48:37.473Z,98709.13
2024-02-08T10:50:43.203Z,98700.97
2024-02-08T10:52:50.401Z,98699.59
2024-02-08T10:54:57.903Z,98694.47
2024-02-08T10:57:08.209Z,98687.44
2024-02-08T10:59:15.140Z,98690.66
2024-02-08T11:01:33.132Z,98688.84
2024-02-08T11:03:43.924Z,98682.63
2024-02-08T11:06:02.358Z,98685.97
2024-02-08T11:08:15.076Z,98677.19
2024-02-08T11:10:25.504Z,98682.63
2024-02-08T11:12:33.742Z,98694.13
2024-02-08T11:14:42.665Z,98691.25
2024-02-08T11:16:50.997Z,98693.72
2024-02-08T11:18:56.307Z,98682.53
2024-02-08T11:21:05.274Z,98690.59
2024-02-08T11:23:10.935Z,98693.34
2024-02-08T11:25:24.772Z,98693.13
2024-02-08T11:27:29.257Z,98689.16
2024-02-08T11:29:43.364Z,98690.53
2024-02-08T11:31:47.661Z,98684.91
2024-02-08T11:33:51.909Z,98682.22
2024-02-08T11:36:13.529Z,98677.59
2024-02-08T11:38:18.938Z,98675.47
2024-02-08T11:40:37.481Z,98676.75
2024-02-08T11:42:43.606Z,98663.34
2024-02-08T11:44:47.666Z,98670.59
2024-02-08T11:46:59.366Z,98669.78
2024-02-08T11:49:11.806Z,98656.63
2024-02-08T11:51:16.391Z,98666.78
2024-02-08T11:53:32.763Z,98652.47
2024-02-08T11:55:37.679Z,98653.34
2024-02-08T11:57:42.994Z,98659.22
2024-02-08T11:59:46.799Z,98652.50
2024-02-08T12:01:51.154Z,98652.47
2024-02-08T12:03:55.094Z,98650.75
2024-02-08T12:05:58.936Z,98644.16
2024-02-08T12:08:12.783Z,98646.50
2024-02-08T12:10:16.884Z,98650.16
2024-02-08T12:12:26.887Z,98642.44
2024-02-08T12:14:30.162Z,98637.41
2024-02-08T12:16:34.731Z,98634.41
2024-02-08T12:18:38.071Z,98628.97
2024-02-08T12:20:45.108Z,98639.75
2024-02-08T12:22:57.181Z,98629.41
2024-02-08T12:25:01.560Z,98632.41
2024-02-08T12:27:16.351Z,98639.47
2024-02-08T12:29:26.261Z,98640.84
2024-02-08T12:31:31.274Z,98639.13
2024-02-08T12:33:35.234Z,98639.47
2024-02-08T12:35:42.417Z,98632.84
2024-02-08T12:37:47.571Z,98641.81
2024-02-08T12:39:51.814Z,98638.19
2024-02-08T12:41:55.011Z,98636.47
2024-02-08T12:43:59.559Z,98643.28
2024-02-08T12:46:03.393Z,98640.44
2024-02-08T12:48:10.000Z,98636.66
2024-02-08T12:50:25.116Z,98643.28
2024-02-08T12:52:31.993Z,98642.66
2024-02-08T12:54:35.354Z,98641.16
2024-02-08T12:56:38.757Z,98639.88
2024-02-08T12:58:42.350Z,98636.47
2024-02-08T13:00:56.616Z,98635.50
2024-02-08T13:03:07.233Z,98639.25
2024-02-08T13:05:11.285Z,98629.41
2024-02-08T13:07:19.584Z,98621.72
2024-02-08T13:09:28.556Z,98622.78
2024-02-08T13:11:32.048Z,98621.03
2024-02-08T13:13:36.318Z,98615.91
2024-02-08T13:15:39.152Z,98616.31
2024-02-08T13:17:42.548Z,98611.38
2024-02-08T13:19:47.518Z,98616.28
2024-02-08T13:21:50.924Z,98614.81
2024-02-08T13:23:57.451Z,98622.94
2024-02-08T13:26:01.511Z,98613.53
2024-02-08T13:28:04.197Z,98603.06
2024-02-08T13:30:16.181Z,98604.00
2024-02-08T13:32:20.642Z,98597.47
2024-02-08T13:34:28.740Z,98594.03
2024-02-08T13:36:36.668Z,98587.59
2024-02-08T13:38:41.272Z,98591.00
2024-02-08T13:40:56.385Z,98584.72
2024-02-08T13:43:00.992Z,98584.66
2024-02-08T13:45:04.198Z,98592.81
2024-02-08T13:47:14.465Z,98590.22
2024-02-08T13:49:23.013Z,98602.22
2024-02-08T13:51:27.625Z,98595.59
2024-02-08T13:53:32.503Z,98591.69
2024-02-08T13:55:46.215Z,98585.34
2024-02-08T13:58:00.901Z,98580.28
2024-02-08T14:00:05.871Z,98584.09
2024-02-08T14:02:17.244Z,98582.91
2024-02-08T14:04:23.780Z,98582.13
2024-02-08T14:06:28.088Z,98586.16
2024-02-08T14:08:33.362Z,98581.72
2024-02-08T14:10:38.199Z,98584.38
2024-02-08T14:12:46.685Z,98581.19
2024-02-08T14:14:54.358Z,98585.19
2024-02-08T14:16:57.659Z,98583.44
2024-02-08T14:19:01.430Z,98581.50
2024-02-08T14:21:09.886Z,98589.19
2024-02-08T14:23:30.993Z,98582.22
2024-02-08T14:25:39.421Z,98573.47
2024-02-08T14:27:42.739Z,98582.47
2024-02-08T14:29:45.978Z,98580.16
2024-02-08T14:31:49.381Z,98578.13
2024-02-08T14:33:52.821Z,98574.09
2024-02-08T14:35:56.516Z,98567.66
2024-02-08T14:37:59.989Z,98572.94
2024-02-08T14:40:04.175Z,98569.41
2024-02-08T14:42:13.348Z,98561.69
2024-02-08T14:44:19.478Z,98555.09
2024-02-08T14:46:27.637Z,98560.22
2024-02-08T14:48:39.001Z,98556.56
2024-02-08T14:50:52.541Z,98566.66
2024-02-08T14:53:02.239Z,98572.38
2024-02-08T14:55:12.119Z,98573.09
2024-02-08T14:57:20.922Z,98568.06
2024-02-08T14:59:24.649Z,98569.78
2024-02-08T15:01:39.555Z,98564.84
2024-02-08T15:03:45.584Z,98559.94
2024-02-08T15:06:01.205Z,98556.94
2024-02-08T15:08:27.604Z,98554.16
2024-02-08T15:10:44.770Z,98553.75
2024-02-08T15:12:54.874Z,98551.09
2024-02-08T15:15:03.840Z,98551.84
2024-02-08T15:17:10.081Z,98551.94
2024-02-08T15:19:15.480Z,98547.34
2024-02-08T15:21:25.770Z,98557.97
2024-02-08T15:23:50.026Z,98546.44
2024-02-08T15:25:54.978Z,98543.56
2024-02-08T15:28:02.046Z,98538.56
2024-02-08T15:30:12.586Z,98530.44
2024-02-08T15:32:20.033Z,98524.25
2024-02-08T15:34:41.811Z,98532.13
2024-02-08T15:37:13.674Z,98526.94
2024-02-08T15:39:49.013Z,98525.28
2024-02-08T15:42:02.957Z,98519.91
2024-02-08T15:44:08.297Z,98525.44
2024-02-08T15:46:12.121Z,98513.06
2024-02-08T15:48:19.532Z,98515.34
2024-02-08T15:50:26.454Z,98515.50
2024-02-08T15:52:35.779Z,98506.03
2024-02-08T15:54:39.788Z,98504.66
2024-02-08T15:56:43.825Z,98500.44
2024-02-08T15:58:47.729Z,98505.44
2024-02-08T16:01:12.139Z,98511.84
2024-02-08T16:03:19.598Z,98512.66
2024-02-08T16:05:24.479Z,98514.03
2024-02-08T16:07:34.364Z,98522.03
2024-02-08T16:09:38.824Z,98527.00
2024-02-08T16:11:44.361Z,98512.47
2024-02-08T16:13:54.914Z,98507.31
2024-02-08T16:16:09.533Z,98505.13
2024-02-08T16:18:24.304Z,98500.75
2024-02-08T16:20:31.357Z,98503.34
2024-02-08T16:22:49.529Z,98492.03
2024-02-08T16:24:56.076Z,98494.91
2024-02-08T16:27:01.973Z,98494.59
2024-02-08T16:29:11.036Z,98484.59
2024-02-08T16:31:26.210Z,98475.78
2024-02-08T16:33:49.979Z,98479.69
2024-02-08T16:36:01.532Z,98478.34
2024-02-08T16:38:22.101Z,98491.25
2024-02-08T16:40:30.677Z,98487.44
2024-02-08T16:42:40.190Z,98483.81
2024-02-08T16:44:59.912Z,98494.09
2024-02-08T16:47:29.606Z,98489.63
2024-02-08T16:49:42.589Z,98478.41
2024-02-08T16:51:51.067Z,98477.03
2024-02-08T16:54:07.486Z,98478.06
2024-02-08T16:56:18.337Z,98474.94
2024-02-08T16:58:40.162Z,98482.84
2024-02-08T17:00:54.118Z,98482.34
2024-02-08T17:03:19.840Z,98473.91
2024-02-08T17:05:30.999Z,98471.50
2024-02-08T17:07:48.780Z,98479.78
2024-02-08T17:10:00.525Z,98479.69
2024-02-08T17:12:20.121Z,98481.13
2024-02-08T17:14:38.323Z,98487.22
2024-02-08T17:16:47.963Z,98480.03
2024-02-08T17:19:20.183Z,98484.72
2024-02-08T17:21:47.720Z,98486.56
2024-02-08T17:24:07.498Z,98487.63
2024-02-08T17:26:28.764Z,98503.28
2024-02-08T17:28:38.368Z,98510.03
2024-02-08T17:31:02.259Z,98508.09
2024-02-08T17:33:14.097Z,98518.53
2024-02-08T17:35:25.525Z,98520.25
2024-02-08T17:37:40.250Z,98522.69
2024-02-08T17:39:50.468Z,98519.94
2024-02-08T17:41:59.530Z,98527.97
2024-02-08T17:44:08.959Z,98519.25
2024-02-08T17:46:19.940Z,98519.25
2024-02-08T17:48:35.196Z,98513.16
2024-02-08T17:50:49.341Z,98512.22
2024-02-08T17:52:56.788Z,98511.97
2024-02-08T17:55:02.794Z,98517.06
2024-02-08T17:57:15.072Z,98517.22
2024-02-08T17:59:18.546Z,98507.47
2024-02-08T18:01:33.371Z,98496.78
2024-02-08T18:03:37.292Z,98499.88
2024-02-08T18:05:42.774Z,98504.31
2024-02-08T18:07:48.302Z,98508.03
2024-02-08T18:09:56.342Z,98495.63
2024-02-08T18:12:14.203Z,98498.44
2024-02-08T18:14:19.461Z,98495.50
2024-02-08T18:16:24.514Z,98483.03
2024-02-08T18:18:29.945Z,98478.25
2024-02-08T18:20:34.649Z,98475.59
2024-02-08T18:22:42.581Z,98472.81
2024-02-08T18:24:49.368Z,98474.22
2024-02-08T18:26:53.277Z,98472.94
2024-02-08T18:28:57.274Z,98475.94
2024-02-08T18:31:07.408Z,98470.38
2024-02-08T18:33:16.921Z,98472.81
2024-02-08T18:35:22.841Z,98470.25
2024-02-08T18:37:27.423Z,98469.03
2024-02-08T18:39:34.254Z,98457.97
2024-02-08T18:41:41.004Z,98463.34
2024-02-08T18:43:45.827Z,98454.28
2024-02-08T18:45:50.525Z,98445.47
2024-02-08T18:47:55.045Z,98440.88
2024-02-08T18:50:00.045Z,98443.84
2024-02-08T18:52:05.918Z,98458.72
2024-02-08T18:54:12.770Z,98460.09
2024-02-08T18:56:19.934Z,98457.31
2024-02-08T18:58:23.787Z,98448.25
2024-02-08T19:00:27.163Z,98453.09
2024-02-08T19:02:30.993Z,98457.47
2024-02-08T19:04:36.493Z,98450.84
2024-02-08T19:06:41.077Z,98448.50
2024-02-08T19:08:46.156Z,98453.97
2024-02-08T19:10:54.386Z,98446.41
2024-02-08T19:13:01.102Z,98447.84
2024-02-08T19:15:08.269Z,98448.84
2024-02-08T19:17:14.838Z,98436.66
2024-02-08T19:19:22.839Z,98432.72
2024-02-08T19:21:27.802Z,98421.97
2024-02-08T19:23:35.396Z,98426.25
2024-02-08T19:25:40.465Z,98428.19
2024-02-08T19:27:46.080Z,98421.19
2024-02-08T19:29:55.759Z,98423.66
2024-02-08T19:32:00.108Z,98422.78
2024-02-08T19:34:07.974Z,98416.78
2024-02-08T19:36:15.316Z,98415.78
2024-02-08T19:38:19.644Z,98406.91
2024-02-08T19:40:26.339Z,98415.28
2024-02-08T19:42:32.772Z,98407.13
2024-02-08T19:44:37.414Z,98406.56
2024-02-08T19:46:53.885Z,98404.78
2024-02-08T19:49:04.348Z,98407.41
2024-02-08T19:51:10.796Z,98408.34
2024-02-08T19:53:16.533Z,98414.97
2024-02-08T19:55:32.188Z,98435.81
2024-02-08T19:57:40.758Z,98437.88
2024-02-08T19:59:50.162Z,98434.88
2024-02-08T20:01:58.973Z,98432.53
2024-02-08T20:04:04.917Z,98432.53
2024-02-08T20:06:12.414Z,98425.13
2024-02-08T20:08:17.884Z,98417.28
2024-02-08T20:10:21.056Z,98399.97
2024-02-08T20:12:26.667Z,98401.47
2024-02-08T20:14:30.396Z,98393.13
2024-02-08T20:16:37.169Z,98388.31
2024-02-08T20:18:47.206Z,98388.84
2024-02-08T20:20:53.710Z,98392.66
2024-02-08T20:23:00.825Z,98404.00
2024-02-08T20:25:06.962Z,98401.88
2024-02-08T20:27:10.243Z,98397.16
2024-02-08T20:29:16.060Z,98397.84
2024-02-08T20:31:20.113Z,98414.56
2024-02-08T20:33:23.671Z,98412.09
2024-02-08T20:35:28.696Z,98413.81
2024-02-08T20:37:33.937Z,98423.88
2024-02-08T20:39:36.135Z,98422.59
2024-02-08T20:41:39.663Z,98428.66
2024-02-08T20:43:49.944Z,98424.13
2024-02-08T20:45:55.804Z,98434.28
2024-02-08T20:48:01.830Z,98432.16
2024-02-08T20:50:06.348Z,98430.41
2024-02-08T20:52:13.988Z,98420.19
2024-02-08T20:54:17.251Z,98432.50
2024-02-08T20:56:29.572Z,98436.44
2024-02-08T20:58:32.957Z,98436.44
2024-02-08T21:00:36.715Z,98446.97
2024-02-08T21:02:43.149Z,98446.81
2024-02-08T21:04:49.806Z,98445.97
2024-02-08T21:06:53.213Z,98458.03
2024-02-08T21:08:58.079Z,98453.72
2024-02-08T21:11:02.767Z,98453.75
2024-02-08T21:13:07.838Z,98454.16
2024-02-08T21:15:15.693Z,98455.84
2024-02-08T21:17:19.510Z,98455.72
2024-02-08T21:19:22.554Z,98445.88
2024-02-08T21:21:25.895Z,98444.00
2024-02-08T21:23:28.182Z,98442.16
2024-02-08T21:25:33.754Z,98436.13
2024-02-08T21:27:37.181Z,98436.63
2024-02-08T21:29:41.360Z,98432.94
2024-02-08T21:31:46.673Z,98431.94
2024-02-08T21:33:51.831Z,98430.00
2024-02-08T21:36:01.444Z,98436.56
2024-02-08T21:38:06.277Z,98422.69
2024-02-08T21:40:10.554Z,98414.06
2024-02-08T21:42:16.655Z,98416.13
2024-02-08T21:44:22.149Z,98414.91
2024-02-08T21:46:28.815Z,98424.25
2024-02-08T21:48:33.169Z,98421.13
2024-02-08T21:50:35.720Z,98422.69
2024-02-08T21:52:39.279Z,98428.91
2024-02-08T21:54:42.936Z,98425.56
2024-02-08T21:56:48.397Z,98424.56
2024-02-08T21:58:53.453Z,98423.63
2024-02-08T22:03:17.632Z,98422.06
2024-02-08T22:05:21.911Z,98425.34
2024-02-08T22:07:25.569Z,98425.00
2024-02-08T22:09:30.419Z,98422.28
2024-02-08T22:11:35.985Z,98427.22
2024-02-08T22:13:39.322Z,98425.22
2024-02-08T22:15:44.862Z,98417.72
2024-02-08T22:17:50.109Z,98421.84
2024-02-08T22:19:53.579Z,98413.91
2024-02-08T22:21:57.373Z,98409.41
2024-02-08T22:24:00.773Z,98407.75
2024-02-08T22:26:04.154Z,98401.44
2024-02-08T22:28:10.953Z,98399.09
2024-02-08T22:30:14.196Z,98391.53
2024-02-08T22:32:19.013Z,98388.94
2024-02-08T22:34:22.561Z,98380.88
2024-02-08T22:36:26.705Z,98366.28
2024-02-08T22:38:30.259Z,98365.03
2024-02-08T22:40:32.879Z,98356.41
2024-02-08T22:42:37.678Z,98352.81
2024-02-08T22:44:42.929Z,98365.50
2024-02-08T22:46:46.794Z,98374.88
2024-02-08T22:48:51.545Z,98363.44
2024-02-08T22:50:54.899Z,98369.97
2024-02-08T22:52:58.196Z,98376.00
2024-02-08T22:55:00.522Z,98372.50
2024-02-08T22:57:05.136Z,98374.72
2024-02-08T22:59:07.869Z,98372.09
2024-02-08T23:01:25.497Z,98370.31
2024-02-08T23:03:33.009Z,98369.41
2024-02-08T23:05:41.203Z,98372.69
2024-02-08T23:07:45.510Z,98363.38
2024-02-08T23:09:48.090Z,98372.69
2024-02-08T23:11:51.847Z,98376.44
2024-02-08T23:13:55.795Z,98380.56
2024-02-08T23:15:59.978Z,98379.09
2024-02-08T23:18:04.390Z,98385.41
2024-02-08T23:20:12.538Z,98370.75
2024-02-08T23:22:17.620Z,98370.75
2024-02-08T23:24:24.259Z,98371.81
2024-02-08T23:26:27.986Z,98378.53
2024-02-08T23:28:31.250Z,98379.94
2024-02-08T23:30:36.253Z,98377.75
2024-02-08T23:32:40.066Z,98379.97
2024-02-08T23:34:43.415Z,98373.06
2024-02-08T23:36:46.768Z,98371.94
2024-02-08T23:38:51.622Z,98372.09
2024-02-08T23:40:56.254Z,98374.97
2024-02-08T23:43:02.632Z,98365.41
2024-02-08T23:45:06.521Z,98366.56
2024-02-08T23:47:19.123Z,98377.50
2024-02-08T23:49:22.653Z,98382.06
2024-02-08T23:51:26.478Z,98367.88
2024-02-08T23:53:32.794Z,98361.81
2024-02-08T23:55:41.048Z,98358.19
2024-02-08T23:57:44.696Z,98354.50
2024-02-08T23:59:48.645Z,98351.00
